sensor_id;sensor_type;location;lat;lon;timestamp;pressure;altitude;pressure_sealevel;temperature;humidity
80585;BME280;70137;56.482;9.154;2023-06-10T00:01:39;102246.91;;;13.55;66.64
80585;BME280;70137;56.482;9.154;2023-06-10T00:04:04;102247.31;;;13.51;65.78
80585;BME280;70137;56.482;9.154;2023-06-10T00:06:30;102252.97;;;13.46;66.47
80585;BME280;70137;56.482;9.154;2023-06-10T00:09:01;102250.81;;;13.41;66.64
80585;BME280;70137;56.482;9.154;2023-06-10T00:11:26;102253.03;;;13.36;66.28
80585;BME280;70137;56.482;9.154;2023-06-10T00:13:51;102255.94;;;13.33;66.65
80585;BME280;70137;56.482;9.154;2023-06-10T00:16:17;102254.41;;;13.31;67.42
80585;BME280;70137;56.482;9.154;2023-06-10T00:18:43;102258.13;;;13.28;67.06
80585;BME280;70137;56.482;9.154;2023-06-10T00:21:09;102255.00;;;13.25;66.82
80585;BME280;70137;56.482;9.154;2023-06-10T00:23:34;102251.59;;;13.24;66.81
80585;BME280;70137;56.482;9.154;2023-06-10T00:26:03;102258.72;;;13.22;66.44
80585;BME280;70137;56.482;9.154;2023-06-10T00:28:29;102251.19;;;13.19;66.82
80585;BME280;70137;56.482;9.154;2023-06-10T00:30:54;102255.84;;;13.15;66.74
80585;BME280;70137;56.482;9.154;2023-06-10T00:33:20;102267.34;;;13.13;66.56
80585;BME280;70137;56.482;9.154;2023-06-10T00:35:46;102263.38;;;13.09;66.39
80585;BME280;70137;56.482;9.154;2023-06-10T00:38:13;102257.78;;;13.04;67.00
80585;BME280;70137;56.482;9.154;2023-06-10T00:40:40;102256.41;;;13.00;66.60
80585;BME280;70137;56.482;9.154;2023-06-10T00:43:08;102272.63;;;12.94;66.75
80585;BME280;70137;56.482;9.154;2023-06-10T00:45:33;102266.84;;;12.90;66.70
80585;BME280;70137;56.482;9.154;2023-06-10T00:47:59;102269.75;;;12.87;66.27
80585;BME280;70137;56.482;9.154;2023-06-10T00:50:26;102269.09;;;12.85;66.86
80585;BME280;70137;56.482;9.154;2023-06-10T00:52:51;102270.44;;;12.79;67.58
80585;BME280;70137;56.482;9.154;2023-06-10T00:55:18;102276.50;;;12.70;67.70
80585;BME280;70137;56.482;9.154;2023-06-10T00:57:44;102277.88;;;12.65;67.36
80585;BME280;70137;56.482;9.154;2023-06-10T01:00:11;102279.25;;;12.59;67.29
80585;BME280;70137;56.482;9.154;2023-06-10T01:02:37;102280.50;;;12.55;67.94
80585;BME280;70137;56.482;9.154;2023-06-10T01:05:03;102281.72;;;12.51;67.31
80585;BME280;70137;56.482;9.154;2023-06-10T01:07:36;102282.97;;;12.47;67.80
80585;BME280;70137;56.482;9.154;2023-06-10T01:10:11;102284.19;;;12.43;67.38
80585;BME280;70137;56.482;9.154;2023-06-10T01:12:59;102290.63;;;12.39;67.57
80585;BME280;70137;56.482;9.154;2023-06-10T01:15:28;102288.31;;;12.36;68.27
80585;BME280;70137;56.482;9.154;2023-06-10T01:17:56;102292.13;;;12.31;68.27
80585;BME280;70137;56.482;9.154;2023-06-10T01:20:23;102291.44;;;12.29;68.13
80585;BME280;70137;56.482;9.154;2023-06-10T01:22:49;102289.13;;;12.26;68.49
80585;BME280;70137;56.482;9.154;2023-06-10T01:25:16;102298.13;;;12.22;68.46
80585;BME280;70137;56.482;9.154;2023-06-10T01:27:44;102301.00;;;12.19;68.41
80585;BME280;70137;56.482;9.154;2023-06-10T01:30:15;102302.22;;;12.15;68.24
80585;BME280;70137;56.482;9.154;2023-06-10T01:32:45;102294.84;;;12.11;67.94
80585;BME280;70137;56.482;9.154;2023-06-10T01:35:11;102297.72;;;12.08;68.71
80585;BME280;70137;56.482;9.154;2023-06-10T01:37:43;102298.78;;;12.05;69.19
80585;BME280;70137;56.482;9.154;2023-06-10T01:40:10;102298.78;;;12.05;68.54
80585;BME280;70137;56.482;9.154;2023-06-10T01:42:37;102301.66;;;12.02;68.78
80585;BME280;70137;56.482;9.154;2023-06-10T01:45:02;102298.38;;;12.00;68.75
80585;BME280;70137;56.482;9.154;2023-06-10T01:47:28;102306.47;;;11.97;68.56
80585;BME280;70137;56.482;9.154;2023-06-10T01:49:54;102297.28;;;11.93;68.43
80585;BME280;70137;56.482;9.154;2023-06-10T01:52:19;102300.28;;;11.88;68.34
80585;BME280;70137;56.482;9.154;2023-06-10T01:54:44;102294.50;;;11.85;69.07
80585;BME280;70137;56.482;9.154;2023-06-10T01:57:10;102293.16;;;11.81;69.28
80585;BME280;70137;56.482;9.154;2023-06-10T01:59:35;102297.75;;;11.77;69.11
80585;BME280;70137;56.482;9.154;2023-06-10T02:02:03;102293.63;;;11.74;69.47
80585;BME280;70137;56.482;9.154;2023-06-10T02:04:28;102303.47;;;11.71;69.11
80585;BME280;70137;56.482;9.154;2023-06-10T02:06:53;102303.75;;;11.68;69.13
80585;BME280;70137;56.482;9.154;2023-06-10T02:09:21;102304.00;;;11.65;69.96
80585;BME280;70137;56.482;9.154;2023-06-10T02:11:49;102300.72;;;11.63;69.26
80585;BME280;70137;56.482;9.154;2023-06-10T02:14:14;102309.47;;;11.62;69.95
80585;BME280;70137;56.482;9.154;2023-06-10T02:16:40;102308.91;;;11.58;70.43
80585;BME280;70137;56.482;9.154;2023-06-10T02:19:06;102311.75;;;11.55;70.77
80585;BME280;70137;56.482;9.154;2023-06-10T02:21:32;102313.66;;;11.53;70.41
80585;BME280;70137;56.482;9.154;2023-06-10T02:24:00;102318.19;;;11.51;71.45
80585;BME280;70137;56.482;9.154;2023-06-10T02:26:26;102321.00;;;11.48;71.46
80585;BME280;70137;56.482;9.154;2023-06-10T02:28:51;102322.50;;;11.41;71.88
80585;BME280;70137;56.482;9.154;2023-06-10T02:31:17;102323.00;;;11.35;72.31
80585;BME280;70137;56.482;9.154;2023-06-10T02:33:43;102326.84;;;11.31;72.66
80585;BME280;70137;56.482;9.154;2023-06-10T02:36:09;102326.84;;;11.31;72.57
80585;BME280;70137;56.482;9.154;2023-06-10T02:38:39;102332.03;;;11.31;72.46
80585;BME280;70137;56.482;9.154;2023-06-10T02:41:07;102330.50;;;11.28;72.55
80585;BME280;70137;56.482;9.154;2023-06-10T02:43:33;102333.22;;;11.27;72.01
80585;BME280;70137;56.482;9.154;2023-06-10T02:45:58;102335.13;;;11.25;71.50
80585;BME280;70137;56.482;9.154;2023-06-10T02:48:24;102332.66;;;11.23;71.47
80585;BME280;70137;56.482;9.154;2023-06-10T02:50:49;102338.00;;;11.22;71.50
80585;BME280;70137;56.482;9.154;2023-06-10T02:53:15;102343.31;;;11.20;70.56
80585;BME280;70137;56.482;9.154;2023-06-10T02:55:40;102345.91;;;11.20;71.44
80585;BME280;70137;56.482;9.154;2023-06-10T02:58:06;102346.84;;;11.19;70.67
80585;BME280;70137;56.482;9.154;2023-06-10T03:00:32;102345.31;;;11.16;70.92
80585;BME280;70137;56.482;9.154;2023-06-10T03:02:58;102343.69;;;11.15;70.99
80585;BME280;70137;56.482;9.154;2023-06-10T03:05:28;102343.94;;;11.12;71.16
80585;BME280;70137;56.482;9.154;2023-06-10T03:07:53;102343.94;;;11.12;71.12
80585;BME280;70137;56.482;9.154;2023-06-10T03:10:19;102340.66;;;11.10;70.84
80585;BME280;70137;56.482;9.154;2023-06-10T03:12:44;102339.94;;;11.08;71.48
80585;BME280;70137;56.482;9.154;2023-06-10T03:15:10;102341.72;;;11.08;71.30
80585;BME280;70137;56.482;9.154;2023-06-10T03:17:35;102341.16;;;11.04;71.51
80585;BME280;70137;56.482;9.154;2023-06-10T03:20:04;102343.75;;;11.04;71.48
80585;BME280;70137;56.482;9.154;2023-06-10T03:22:30;102341.28;;;11.03;71.46
80585;BME280;70137;56.482;9.154;2023-06-10T03:24:56;102344.13;;;11.00;71.64
80585;BME280;70137;56.482;9.154;2023-06-10T03:27:22;102349.44;;;10.98;71.69
80585;BME280;70137;56.482;9.154;2023-06-10T03:29:48;102340.84;;;10.98;71.56
80585;BME280;70137;56.482;9.154;2023-06-10T03:32:13;102344.38;;;10.97;71.87
80585;BME280;70137;56.482;9.154;2023-06-10T03:34:40;102343.00;;;10.93;72.67
80585;BME280;70137;56.482;9.154;2023-06-10T03:37:05;102344.50;;;10.95;72.86
80585;BME280;70137;56.482;9.154;2023-06-10T03:39:31;102351.22;;;10.98;72.94
80585;BME280;70137;56.482;9.154;2023-06-10T03:41:56;102357.00;;;11.01;73.03
80585;BME280;70137;56.482;9.154;2023-06-10T03:44:24;102357.56;;;11.05;72.96
80585;BME280;70137;56.482;9.154;2023-06-10T03:46:51;102360.84;;;11.07;72.69
80585;BME280;70137;56.482;9.154;2023-06-10T03:49:17;102364.13;;;11.09;73.59
80585;BME280;70137;56.482;9.154;2023-06-10T03:51:42;102359.50;;;11.12;72.76
80585;BME280;70137;56.482;9.154;2023-06-10T03:54:08;102361.59;;;11.18;73.39
80585;BME280;70137;56.482;9.154;2023-06-10T03:56:34;102362.31;;;11.21;73.33
80585;BME280;70137;56.482;9.154;2023-06-10T03:59:00;102362.03;;;11.24;73.91
80585;BME280;70137;56.482;9.154;2023-06-10T04:01:25;102366.41;;;11.23;73.91
80585;BME280;70137;56.482;9.154;2023-06-10T04:03:50;102376.28;;;11.29;74.13
80585;BME280;70137;56.482;9.154;2023-06-10T04:06:19;102367.97;;;11.35;73.43
80585;BME280;70137;56.482;9.154;2023-06-10T04:08:44;102365.69;;;11.42;73.87
80585;BME280;70137;56.482;9.154;2023-06-10T04:11:09;102377.22;;;11.49;73.55
80585;BME280;70137;56.482;9.154;2023-06-10T04:13:35;102377.63;;;11.54;73.60
80585;BME280;70137;56.482;9.154;2023-06-10T04:16:00;102366.06;;;11.58;73.64
80585;BME280;70137;56.482;9.154;2023-06-10T04:18:25;102371.81;;;11.62;73.50
80585;BME280;70137;56.482;9.154;2023-06-10T04:20:53;102373.03;;;11.67;73.26
80585;BME280;70137;56.482;9.154;2023-06-10T04:23:19;102370.75;;;11.74;72.65
80585;BME280;70137;56.482;9.154;2023-06-10T04:25:44;102378.75;;;11.82;72.94
80585;BME280;70137;56.482;9.154;2023-06-10T04:28:10;102381.53;;;11.90;72.44
80585;BME280;70137;56.482;9.154;2023-06-10T04:30:35;102378.00;;;12.01;72.46
80585;BME280;70137;56.482;9.154;2023-06-10T04:33:00;102375.56;;;12.09;72.10
80585;BME280;70137;56.482;9.154;2023-06-10T04:35:26;102376.53;;;12.18;71.95
80585;BME280;70137;56.482;9.154;2023-06-10T04:37:54;102378.44;;;12.25;71.54
80585;BME280;70137;56.482;9.154;2023-06-10T04:40:20;102378.88;;;12.30;71.35
80585;BME280;70137;56.482;9.154;2023-06-10T04:42:45;102373.84;;;12.39;71.65
80585;BME280;70137;56.482;9.154;2023-06-10T04:45:11;102377.41;;;12.47;72.02
80585;BME280;70137;56.482;9.154;2023-06-10T04:47:36;102372.47;;;12.54;71.36
80585;BME280;70137;56.482;9.154;2023-06-10T04:50:03;102370.84;;;12.63;71.12
80585;BME280;70137;56.482;9.154;2023-06-10T04:52:29;102377.81;;;12.72;71.31
80585;BME280;70137;56.482;9.154;2023-06-10T04:54:54;102381.38;;;12.80;70.91
80585;BME280;70137;56.482;9.154;2023-06-10T04:57:20;102378.78;;;12.90;70.32
80585;BME280;70137;56.482;9.154;2023-06-10T04:59:46;102382.19;;;13.00;70.71
80585;BME280;70137;56.482;9.154;2023-06-10T05:02:12;102371.63;;;13.02;70.80
80585;BME280;70137;56.482;9.154;2023-06-10T05:04:37;102376.97;;;13.10;71.17
80585;BME280;70137;56.482;9.154;2023-06-10T05:07:03;102370.25;;;13.17;71.75
80585;BME280;70137;56.482;9.154;2023-06-10T05:09:28;102380.00;;;13.25;71.75
80585;BME280;70137;56.482;9.154;2023-06-10T05:11:54;102376.69;;;13.32;71.82
80585;BME280;70137;56.482;9.154;2023-06-10T05:14:19;102374.88;;;13.42;72.07
80585;BME280;70137;56.482;9.154;2023-06-10T05:16:46;102372.09;;;13.54;71.92
80585;BME280;70137;56.482;9.154;2023-06-10T05:19:11;102370.97;;;13.66;71.49
80585;BME280;70137;56.482;9.154;2023-06-10T05:21:37;102372.69;;;13.75;71.05
80585;BME280;70137;56.482;9.154;2023-06-10T05:24:02;102379.22;;;13.89;71.34
80585;BME280;70137;56.482;9.154;2023-06-10T05:26:28;102376.44;;;14.00;70.47
80585;BME280;70137;56.482;9.154;2023-06-10T05:28:54;102376.09;;;14.13;69.86
80585;BME280;70137;56.482;9.154;2023-06-10T05:31:19;102375.72;;;14.25;69.79
80585;BME280;70137;56.482;9.154;2023-06-10T05:33:45;102380.28;;;14.41;69.00
80585;BME280;70137;56.482;9.154;2023-06-10T05:36:10;102381.59;;;14.55;68.59
80585;BME280;70137;56.482;9.154;2023-06-10T05:38:35;102381.75;;;14.71;68.47
80585;BME280;70137;56.482;9.154;2023-06-10T05:41:01;102377.47;;;14.88;66.56
80585;BME280;70137;56.482;9.154;2023-06-10T05:43:28;102383.13;;;15.01;66.52
80585;BME280;70137;56.482;9.154;2023-06-10T05:45:54;102378.00;;;15.17;65.82
80585;BME280;70137;56.482;9.154;2023-06-10T05:48:19;102376.47;;;15.33;63.66
80585;BME280;70137;56.482;9.154;2023-06-10T05:50:45;102372.75;;;15.43;63.19
80585;BME280;70137;56.482;9.154;2023-06-10T05:53:14;102379.75;;;15.61;62.18
80585;BME280;70137;56.482;9.154;2023-06-10T05:55:43;102385.50;;;15.72;59.73
80585;BME280;70137;56.482;9.154;2023-06-10T05:58:09;102384.94;;;15.87;60.35
80585;BME280;70137;56.482;9.154;2023-06-10T06:00:34;102385.00;;;16.03;60.11
80585;BME280;70137;56.482;9.154;2023-06-10T06:02:59;102384.22;;;16.19;58.73
80585;BME280;70137;56.482;9.154;2023-06-10T06:05:25;102389.94;;;16.30;57.78
80585;BME280;70137;56.482;9.154;2023-06-10T06:07:53;102389.97;;;16.39;54.08
80585;BME280;70137;56.482;9.154;2023-06-10T06:10:21;102382.78;;;16.49;53.40
80585;BME280;70137;56.482;9.154;2023-06-10T06:12:46;102381.00;;;16.57;53.38
80585;BME280;70137;56.482;9.154;2023-06-10T06:15:11;102381.38;;;16.71;53.94
80585;BME280;70137;56.482;9.154;2023-06-10T06:17:37;102392.00;;;16.85;52.93
80585;BME280;70137;56.482;9.154;2023-06-10T06:20:03;102385.13;;;17.01;52.21
80585;BME280;70137;56.482;9.154;2023-06-10T06:22:30;102390.69;;;17.14;51.83
80585;BME280;70137;56.482;9.154;2023-06-10T06:24:57;102389.03;;;17.21;48.29
80585;BME280;70137;56.482;9.154;2023-06-10T06:30:51;102390.66;;;17.38;48.49
80585;BME280;70137;56.482;9.154;2023-06-10T06:33:29;102393.22;;;17.46;48.31
80585;BME280;70137;56.482;9.154;2023-06-10T06:35:57;102392.88;;;17.58;48.46
80585;BME280;70137;56.482;9.154;2023-06-10T06:38:25;102395.00;;;17.70;46.86
80585;BME280;70137;56.482;9.154;2023-06-10T06:40:53;102396.13;;;17.76;46.25
80585;BME280;70137;56.482;9.154;2023-06-10T07:04:27;102394.09;;;19.09;43.04
80585;BME280;70137;56.482;9.154;2023-06-10T07:11:00;102398.47;;;19.46;42.61
80585;BME280;70137;56.482;9.154;2023-06-10T07:13:38;102408.91;;;19.54;43.48
80585;BME280;70137;56.482;9.154;2023-06-10T07:16:43;102405.22;;;19.63;42.99
80585;BME280;70137;56.482;9.154;2023-06-10T07:30:37;102405.25;;;20.36;40.74
80585;BME280;70137;56.482;9.154;2023-06-10T07:37:03;102398.53;;;20.33;39.71
80585;BME280;70137;56.482;9.154;2023-06-10T07:40:14;102404.03;;;20.53;40.37
80585;BME280;70137;56.482;9.154;2023-06-10T07:43:23;102396.00;;;20.61;39.11
80585;BME280;70137;56.482;9.154;2023-06-10T07:46:30;102392.03;;;20.72;38.48
80585;BME280;70137;56.482;9.154;2023-06-10T07:49:35;102392.66;;;20.95;37.20
80585;BME280;70137;56.482;9.154;2023-06-10T08:20:34;102387.66;;;22.44;30.92
80585;BME280;70137;56.482;9.154;2023-06-10T08:24:12;102384.78;;;22.45;29.47
80585;BME280;70137;56.482;9.154;2023-06-10T08:30:20;102381.56;;;22.70;28.78
80585;BME280;70137;56.482;9.154;2023-06-10T08:39:42;102378.50;;;23.12;29.01
80585;BME280;70137;56.482;9.154;2023-06-10T08:45:30;102381.00;;;23.52;25.68
80585;BME280;70137;56.482;9.154;2023-06-10T08:48:29;102376.75;;;23.51;27.11
80585;BME280;70137;56.482;9.154;2023-06-10T08:51:06;102370.34;;;23.79;26.58
80585;BME280;70137;56.482;9.154;2023-06-10T08:53:48;102382.25;;;24.01;25.37
80585;BME280;70137;56.482;9.154;2023-06-10T08:56:30;102382.00;;;24.09;25.90
80585;BME280;70137;56.482;9.154;2023-06-10T08:59:27;102377.44;;;24.23;25.98
80585;BME280;70137;56.482;9.154;2023-06-10T09:06:00;102379.28;;;24.54;24.56
80585;BME280;70137;56.482;9.154;2023-06-10T09:13:10;102371.41;;;24.91;25.44
80585;BME280;70137;56.482;9.154;2023-06-10T09:15:52;102374.66;;;24.93;25.15
80585;BME280;70137;56.482;9.154;2023-06-10T09:19:12;102371.91;;;24.99;25.27
80585;BME280;70137;56.482;9.154;2023-06-10T09:25:58;102369.06;;;25.37;24.98
80585;BME280;70137;56.482;9.154;2023-06-10T09:28:36;102370.28;;;25.42;24.41
80585;BME280;70137;56.482;9.154;2023-06-10T09:31:08;102368.06;;;25.38;24.10
80585;BME280;70137;56.482;9.154;2023-06-10T09:33:46;102367.97;;;25.27;22.53
80585;BME280;70137;56.482;9.154;2023-06-10T09:46:30;102359.34;;;25.68;23.29
80585;BME280;70137;56.482;9.154;2023-06-10T09:49:18;102361.28;;;25.91;25.24
80585;BME280;70137;56.482;9.154;2023-06-10T10:05:51;102357.22;;;26.30;24.28
80585;BME280;70137;56.482;9.154;2023-06-10T10:08:58;102372.97;;;26.43;24.62
80585;BME280;70137;56.482;9.154;2023-06-10T10:11:51;102359.81;;;26.48;24.00
80585;BME280;70137;56.482;9.154;2023-06-10T10:25:26;102359.31;;;26.28;23.91
80585;BME280;70137;56.482;9.154;2023-06-10T10:28:20;102365.03;;;26.55;23.79
80585;BME280;70137;56.482;9.154;2023-06-10T10:31:18;102361.25;;;26.33;23.23
80585;BME280;70137;56.482;9.154;2023-06-10T10:34:35;102362.59;;;26.12;23.71
80585;BME280;70137;56.482;9.154;2023-06-10T10:37:36;102355.00;;;26.15;24.27
80585;BME280;70137;56.482;9.154;2023-06-10T10:43:46;102358.84;;;26.31;24.38
80585;BME280;70137;56.482;9.154;2023-06-10T10:46:44;102354.25;;;26.38;23.75
80585;BME280;70137;56.482;9.154;2023-06-10T10:56:36;102354.84;;;26.52;21.17
80585;BME280;70137;56.482;9.154;2023-06-10T10:59:29;102355.06;;;26.62;21.05
80585;BME280;70137;56.482;9.154;2023-06-10T11:02:45;102361.81;;;26.65;21.94
80585;BME280;70137;56.482;9.154;2023-06-10T11:05:15;102356.00;;;26.68;21.88
80585;BME280;70137;56.482;9.154;2023-06-10T11:07:54;102348.47;;;26.88;20.70
80585;BME280;70137;56.482;9.154;2023-06-10T11:10:36;102349.66;;;26.69;20.06
80585;BME280;70137;56.482;9.154;2023-06-10T11:13:15;102353.44;;;26.73;21.37
80585;BME280;70137;56.482;9.154;2023-06-10T11:15:50;102350.78;;;26.96;22.74
80585;BME280;70137;56.482;9.154;2023-06-10T11:18:34;102348.81;;;27.15;21.42
80585;BME280;70137;56.482;9.154;2023-06-10T11:21:04;102347.16;;;27.26;21.73
80585;BME280;70137;56.482;9.154;2023-06-10T11:23:39;102351.59;;;27.08;21.78
80585;BME280;70137;56.482;9.154;2023-06-10T11:26:43;102344.91;;;27.06;21.89
80585;BME280;70137;56.482;9.154;2023-06-10T11:29:23;102347.06;;;26.97;23.30
80585;BME280;70137;56.482;9.154;2023-06-10T11:38:41;102342.81;;;26.96;22.47
80585;BME280;70137;56.482;9.154;2023-06-10T11:48:39;102328.06;;;27.29;21.40
80585;BME280;70137;56.482;9.154;2023-06-10T11:52:17;102339.19;;;27.26;21.33
80585;BME280;70137;56.482;9.154;2023-06-10T11:55:06;102336.59;;;27.02;21.46
80585;BME280;70137;56.482;9.154;2023-06-10T12:01:46;102332.16;;;27.08;22.69
80585;BME280;70137;56.482;9.154;2023-06-10T12:07:38;102344.22;;;27.39;23.83
80585;BME280;70137;56.482;9.154;2023-06-10T12:10:26;102333.94;;;27.43;23.29
80585;BME280;70137;56.482;9.154;2023-06-10T12:16:32;102333.31;;;27.52;23.65
80585;BME280;70137;56.482;9.154;2023-06-10T12:22:49;102328.63;;;27.59;25.20
80585;BME280;70137;56.482;9.154;2023-06-10T12:25:39;102327.50;;;27.84;24.82
80585;BME280;70137;56.482;9.154;2023-06-10T12:31:30;102317.25;;;27.76;22.39
80585;BME280;70137;56.482;9.154;2023-06-10T12:34:14;102318.53;;;27.73;23.77
80585;BME280;70137;56.482;9.154;2023-06-10T12:36:53;102316.38;;;27.87;24.43
80585;BME280;70137;56.482;9.154;2023-06-10T12:39:32;102318.66;;;27.66;24.50
80585;BME280;70137;56.482;9.154;2023-06-10T12:42:01;102322.97;;;27.56;25.39
80585;BME280;70137;56.482;9.154;2023-06-10T12:44:47;102328.94;;;27.46;25.45
80585;BME280;70137;56.482;9.154;2023-06-10T12:54:17;102318.94;;;27.53;24.25
80585;BME280;70137;56.482;9.154;2023-06-10T13:00:22;102317.72;;;27.73;23.45
80585;BME280;70137;56.482;9.154;2023-06-10T13:06:08;102316.34;;;27.70;24.80
80585;BME280;70137;56.482;9.154;2023-06-10T13:09:16;102309.41;;;27.57;24.36
80585;BME280;70137;56.482;9.154;2023-06-10T13:15:07;102300.97;;;27.60;23.82
80585;BME280;70137;56.482;9.154;2023-06-10T13:35:03;102295.25;;;27.69;25.04
80585;BME280;70137;56.482;9.154;2023-06-10T13:38:37;102302.16;;;27.98;25.01
80585;BME280;70137;56.482;9.154;2023-06-10T13:41:28;102302.06;;;27.76;25.87
80585;BME280;70137;56.482;9.154;2023-06-10T13:47:31;102287.53;;;27.84;24.20
80585;BME280;70137;56.482;9.154;2023-06-10T13:50:48;102283.94;;;27.61;24.63
80585;BME280;70137;56.482;9.154;2023-06-10T14:03:55;102280.03;;;27.52;24.63
80585;BME280;70137;56.482;9.154;2023-06-10T14:07:00;102284.16;;;27.60;25.21
80585;BME280;70137;56.482;9.154;2023-06-10T14:13:07;102281.16;;;27.85;23.92
80585;BME280;70137;56.482;9.154;2023-06-10T14:16:27;102279.16;;;28.09;23.56
80585;BME280;70137;56.482;9.154;2023-06-10T14:19:38;102275.59;;;28.03;23.89
80585;BME280;70137;56.482;9.154;2023-06-10T14:22:22;102267.84;;;27.85;23.99
80585;BME280;70137;56.482;9.154;2023-06-10T14:24:53;102277.44;;;27.86;24.68
80585;BME280;70137;56.482;9.154;2023-06-10T14:27:18;102278.88;;;27.77;24.62
80585;BME280;70137;56.482;9.154;2023-06-10T14:29:55;102272.75;;;27.76;24.64
80585;BME280;70137;56.482;9.154;2023-06-10T14:32:51;102279.16;;;27.63;24.59
80585;BME280;70137;56.482;9.154;2023-06-10T14:35:58;102267.88;;;27.28;24.98
80585;BME280;70137;56.482;9.154;2023-06-10T14:38:56;102271.56;;;27.27;24.88
80585;BME280;70137;56.482;9.154;2023-06-10T14:41:23;102266.38;;;27.32;25.15
80585;BME280;70137;56.482;9.154;2023-06-10T14:43:48;102264.41;;;27.27;25.27
80585;BME280;70137;56.482;9.154;2023-06-10T14:49:46;102261.41;;;27.52;24.73
80585;BME280;70137;56.482;9.154;2023-06-10T14:52:26;102268.22;;;27.48;24.78
80585;BME280;70137;56.482;9.154;2023-06-10T14:55:27;102262.69;;;27.21;25.56
80585;BME280;70137;56.482;9.154;2023-06-10T15:04:50;102252.22;;;26.91;26.28
80585;BME280;70137;56.482;9.154;2023-06-10T15:07:28;102244.16;;;26.86;26.20
80585;BME280;70137;56.482;9.154;2023-06-10T15:14:01;102254.88;;;26.91;26.26
80585;BME280;70137;56.482;9.154;2023-06-10T15:17:11;102253.38;;;26.95;26.21
80585;BME280;70137;56.482;9.154;2023-06-10T15:30:17;102239.25;;;27.06;26.52
80585;BME280;70137;56.482;9.154;2023-06-10T15:33:09;102240.44;;;26.87;26.93
80585;BME280;70137;56.482;9.154;2023-06-10T15:35:55;102240.69;;;26.86;26.83
80585;BME280;70137;56.482;9.154;2023-06-10T15:48:47;102239.75;;;26.80;27.25
80585;BME280;70137;56.482;9.154;2023-06-10T16:04:43;102239.69;;;26.40;27.30
80585;BME280;70137;56.482;9.154;2023-06-10T16:07:11;102226.72;;;26.32;28.30
80585;BME280;70137;56.482;9.154;2023-06-10T16:09:42;102231.22;;;26.31;28.98
80585;BME280;70137;56.482;9.154;2023-06-10T16:12:20;102226.97;;;26.42;28.64
80585;BME280;70137;56.482;9.154;2023-06-10T16:14:55;102222.59;;;26.36;28.52
80585;BME280;70137;56.482;9.154;2023-06-10T16:17:21;102219.91;;;26.24;28.76
80585;BME280;70137;56.482;9.154;2023-06-10T16:19:47;102219.22;;;26.17;27.94
80585;BME280;70137;56.482;9.154;2023-06-10T16:22:30;102214.50;;;26.07;28.66
80585;BME280;70137;56.482;9.154;2023-06-10T16:24:55;102222.81;;;26.11;28.94
80585;BME280;70137;56.482;9.154;2023-06-10T16:27:23;102215.63;;;26.11;28.65
80585;BME280;70137;56.482;9.154;2023-06-10T16:29:53;102224.19;;;26.02;28.59
80585;BME280;70137;56.482;9.154;2023-06-10T16:32:35;102217.94;;;25.96;28.79
80585;BME280;70137;56.482;9.154;2023-06-10T16:35:10;102220.72;;;25.89;28.57
80585;BME280;70137;56.482;9.154;2023-06-10T16:37:35;102218.41;;;25.93;29.41
80585;BME280;70137;56.482;9.154;2023-06-10T16:40:17;102220.16;;;25.87;28.85
80585;BME280;70137;56.482;9.154;2023-06-10T16:43:19;102215.50;;;25.71;28.61
80585;BME280;70137;56.482;9.154;2023-06-10T16:46:19;102225.81;;;25.49;29.18
80585;BME280;70137;56.482;9.154;2023-06-10T16:48:48;102225.56;;;25.51;28.94
80585;BME280;70137;56.482;9.154;2023-06-10T16:51:23;102225.44;;;25.57;29.79
80585;BME280;70137;56.482;9.154;2023-06-10T16:54:28;102229.13;;;25.45;29.84
80585;BME280;70137;56.482;9.154;2023-06-10T16:57:09;102222.06;;;25.38;30.86
80585;BME280;70137;56.482;9.154;2023-06-10T17:03:12;102227.28;;;25.15;31.29
80585;BME280;70137;56.482;9.154;2023-06-10T17:05:54;102235.13;;;25.10;31.44
80585;BME280;70137;56.482;9.154;2023-06-10T17:11:28;102231.13;;;24.82;31.50
80585;BME280;70137;56.482;9.154;2023-06-10T17:14:13;102224.44;;;24.62;31.52
80585;BME280;70137;56.482;9.154;2023-06-10T17:16:54;102222.50;;;24.32;32.41
80585;BME280;70137;56.482;9.154;2023-06-10T17:19:39;102223.53;;;24.24;32.37
80585;BME280;70137;56.482;9.154;2023-06-10T17:22:07;102223.00;;;24.16;33.08
80585;BME280;70137;56.482;9.154;2023-06-10T17:24:40;102223.50;;;24.06;33.70
80585;BME280;70137;56.482;9.154;2023-06-10T17:27:14;102223.22;;;23.89;34.29
80585;BME280;70137;56.482;9.154;2023-06-10T17:29:42;102231.03;;;23.78;34.41
80585;BME280;70137;56.482;9.154;2023-06-10T17:32:17;102227.41;;;23.72;34.09
80585;BME280;70137;56.482;9.154;2023-06-10T17:35:05;102224.19;;;23.63;34.76
80585;BME280;70137;56.482;9.154;2023-06-10T17:37:51;102237.50;;;23.50;34.72
80585;BME280;70137;56.482;9.154;2023-06-10T17:40:19;102230.84;;;23.34;34.75
80585;BME280;70137;56.482;9.154;2023-06-10T17:43:10;102231.59;;;23.17;35.36
80585;BME280;70137;56.482;9.154;2023-06-10T17:45:48;102235.50;;;23.01;35.48
80585;BME280;70137;56.482;9.154;2023-06-10T17:48:16;102231.47;;;22.85;35.77
80585;BME280;70137;56.482;9.154;2023-06-10T17:50:48;102246.53;;;22.78;36.71
80585;BME280;70137;56.482;9.154;2023-06-10T17:53:14;102238.03;;;22.63;36.20
80585;BME280;70137;56.482;9.154;2023-06-10T17:55:39;102239.25;;;22.53;36.73
80585;BME280;70137;56.482;9.154;2023-06-10T17:58:04;102240.69;;;22.43;36.44
80585;BME280;70137;56.482;9.154;2023-06-10T18:00:30;102237.25;;;22.29;36.83
80585;BME280;70137;56.482;9.154;2023-06-10T18:02:55;102240.09;;;22.14;37.63
80585;BME280;70137;56.482;9.154;2023-06-10T18:05:21;102239.06;;;22.02;37.12
80585;BME280;70137;56.482;9.154;2023-06-10T18:07:46;102250.59;;;21.88;38.14
80585;BME280;70137;56.482;9.154;2023-06-10T18:10:12;102253.88;;;21.83;38.31